Normandie — FNNO — position and weather

sailwx.info

Track history (hours):
 
Tides and Currents Weather Stations Pressure Air Temp Water Temp Dewpoint Dewpoint Depression Visibility Wind Speed Wind Dir Waves Ship Positions

Normandie

Operator: Brittany Ferries

Last reported at 2017-Sep-19 11:31 UTC. Time now 2017-Sep-19 11:43 UTC.
Position N 50°41' W 001°01'.

Length 161 m; beam 27 m.

Type: Passenger vessel. MMSI: 227273000.

Date/timePositionNaut miles runAvg speedWind from/ knotsBaromVisibWave heightAir tempDewpointWater temp
2017-Sep-19 11:31N 50°41' W 001°01'1019.3
2017-Sep-19 11:00N 50°32' W 000°55'6219.2
2017-Sep-19 07:48N 49°35' W 000°21'619.1
2017-Sep-19 07:30N 49°29' W 000°19'918.4
2017-Sep-19 07:00N 49°21' W 000°14'3 6.4
2017-Sep-19 06:31N 49°17' W 000°15'0 0.0
2017-Sep-19 06:00N 49°17' W 000°15'0 0.0
2017-Sep-19 05:30N 49°17' W 000°15'0 0.0
2017-Sep-19 05:01N 49°17' W 000°15'0 0.3
2017-Sep-19 04:31N 49°17' W 000°15'815.6
2017-Sep-19 04:00N 49°25' W 000°14'916.0
2017-Sep-19 03:28N 49°33' W 000°20'6415.3
2017-Sep-18 23:16N 50°33' W 000°56'415.5
2017-Sep-18 23:01N 50°37' W 000°58'815.1
2017-Sep-18 22:30N 50°44' W 001°03'510.8
2017-Sep-18 22:01N 50°49' W 001°06'0 0.6
2017-Sep-18 21:30N 50°49' W 001°06'0 0.0
2017-Sep-18 21:01N 50°49' W 001°06'0 0.0
2017-Sep-18 20:30N 50°49' W 001°06'2 3.4
2017-Sep-18 20:00N 50°47' W 001°06'816.5
2017-Sep-18 19:31N 50°40' W 000°59'918.8
2017-Sep-18 19:00N 50°32' W 000°53'6718.8
2017-Sep-18 15:25N 49°28' W 000°19'818.4
2017-Sep-18 15:00N 49°21' W 000°15'3 6.9
2017-Sep-18 14:30N 49°17' W 000°15'0 0.0
2017-Sep-18 14:00N 49°17' W 000°15'0 0.0
2017-Sep-18 13:31N 49°17' W 000°15'0 0.0
2017-Sep-18 13:00N 49°17' W 000°15'4 7.3
2017-Sep-18 12:30N 49°21' W 000°14'1018.9
2017-Sep-18 11:58N 49°31' W 000°19'6618.5
2017-Sep-18 08:25N 50°32' W 000°54'819.0
2017-Sep-18 08:00N 50°39' W 000°59'816.9
2017-Sep-18 07:31N 50°47' W 001°06'2 3.9
2017-Sep-18 07:00N 50°49' W 001°06'0 0.0
2017-Sep-18 06:31N 50°49' W 001°06'0 0.0
2017-Sep-18 06:00N 50°49' W 001°06'0 1.0
2017-Sep-18 05:31N 50°49' W 001°07'611.8
2017-Sep-18 05:01N 50°44' W 001°02'816.9
2017-Sep-18 04:30N 50°36' W 000°56'3411.6
2017-Sep-18 01:34N 50°03' W 000°43'211.3
2017-Sep-18 01:23N 50°01' W 000°43'411.7
2017-Sep-18 01:00N 49°56' W 000°41'2410.8
2017-Sep-17 22:44N 49°36' W 000°19'311.8
2017-Sep-17 22:29N 49°33' W 000°18'611.6
2017-Sep-17 22:00N 49°28' W 000°17'611.3
2017-Sep-17 21:30N 49°22' W 000°15'510.2
2017-Sep-17 21:00N 49°17' W 000°15'0 0.1
2017-Sep-17 20:30N 49°17' W 000°15'0 0.0
2017-Sep-17 20:00N 49°17' W 000°15'0 0.0
2017-Sep-17 19:30N 49°17' W 000°15'3 6.1
2017-Sep-17 19:00N 49°20' W 000°14'918.7
2017-Sep-17 18:30N 49°30' W 000°17'7218.7
2017-Sep-17 14:39N 50°37' W 000°57'319.1
2017-Sep-17 14:30N 50°39' W 000°58'816.8
2017-Sep-17 14:00N 50°46' W 001°05'3 5.1
2017-Sep-17 13:31N 50°49' W 001°06'0 0.0
2017-Sep-17 13:01N 50°49' W 001°06'0 0.0
2017-Sep-17 12:31N 50°49' W 001°06'0 0.6
2017-Sep-17 12:00N 50°49' W 001°06'611.2
2017-Sep-17 11:30N 50°44' W 001°02'817.0
2017-Sep-17 11:01N 50°36' W 000°58'2518.8
2017-Sep-17 09:40N 50°12' W 000°45'618.9
2017-Sep-17 09:22N 50°07' W 000°41'4218.9
2017-Sep-17 07:09N 49°28' W 000°18'318.7
2017-Sep-17 07:00N 49°25' W 000°17'815.9
2017-Sep-17 06:30N 49°17' W 000°15'0 0.1
2017-Sep-17 06:00N 49°17' W 000°15'0 0.0
2017-Sep-17 05:30N 49°17' W 000°15'0 0.0
2017-Sep-17 05:00N 49°17' W 000°15'0 0.0
2017-Sep-17 04:30N 49°17' W 000°15'612.5
2017-Sep-17 04:00N 49°24' W 000°14'915.6
2017-Sep-17 03:26N 49°32' W 000°19'6615.3
2017-Sep-16 23:08N 50°33' W 000°56'416.1
2017-Sep-16 22:52N 50°38' W 000°58'615.7
2017-Sep-16 22:30N 50°42' W 001°02'612.9
2017-Sep-16 22:00N 50°48' W 001°07'1 1.9
2017-Sep-16 21:30N 50°49' W 001°06'0 0.0
2017-Sep-16 21:00N 50°49' W 001°06'0 0.0
2017-Sep-16 20:31N 50°49' W 001°06'1 1.6
2017-Sep-16 20:00N 50°48' W 001°07'714.6
2017-Sep-16 19:31N 50°42' W 001°01'1019.3
2017-Sep-16 19:00N 50°34' W 000°53'6419.0
2017-Sep-16 15:39N 49°33' W 000°22'318.7
2017-Sep-16 15:29N 49°30' W 000°20'918.2
2017-Sep-16 15:01N 49°22' W 000°15'5 9.9
2017-Sep-16 14:31N 49°17' W 000°15'0 0.0
2017-Sep-16 14:00N 49°17' W 000°15'0 0.0
2017-Sep-16 13:31N 49°17' W 000°15'0 0.2
2017-Sep-16 13:01N 49°17' W 000°15'713.5
2017-Sep-16 12:30N 49°24' W 000°14'1019.1
2017-Sep-16 12:00N 49°34' W 000°16'7019.2
2017-Sep-16 08:22N 50°38' W 000°59'617.6
2017-Sep-16 08:00N 50°44' W 001°03'510.7
2017-Sep-16 07:30N 50°49' W 001°06'0 0.1
2017-Sep-16 07:00N 50°49' W 001°06'0 0.0
2017-Sep-16 06:30N 50°49' W 001°06'0 0.0
2017-Sep-16 06:00N 50°49' W 001°06'0 0.2
2017-Sep-16 05:31N 50°49' W 001°06'5 9.8
2017-Sep-16 05:00N 50°44' W 001°04'918.5
2017-Sep-16 04:31N 50°36' W 000°58'6911.3
2017-Sep-15 22:25N 49°31' W 000°21'511.0
2017-Sep-15 22:00N 49°27' W 000°18'611.3
2017-Sep-15 21:30N 49°22' W 000°15'4 8.4
2017-Sep-15 21:00N 49°17' W 000°15'0 0.0
2017-Sep-15 20:30N 49°17' W 000°15'0 0.0
2017-Sep-15 20:00N 49°17' W 000°15'0 0.0
2017-Sep-15 19:30N 49°17' W 000°15'3 6.1
2017-Sep-15 19:01N 49°20' W 000°14'918.5
2017-Sep-15 18:30N 49°29' W 000°17'7219.2
2017-Sep-15 14:46N 50°37' W 000°57'518.7
2017-Sep-15 14:30N 50°42' W 000°58'816.4
2017-Sep-15 14:00N 50°48' W 001°07'1 2.5
2017-Sep-15 13:30N 50°49' W 001°06'0 0.0
2017-Sep-15 13:01N 50°49' W 001°06'0 0.0
2017-Sep-15 12:31N 50°49' W 001°06'0 0.7
2017-Sep-15 12:00N 50°49' W 001°06'611.6
2017-Sep-15 11:30N 50°44' W 001°02'917.0
2017-Sep-15 11:00N 50°36' W 000°56'6419.4
2017-Sep-15 07:41N 49°35' W 000°25'419.4
2017-Sep-15 07:30N 49°32' W 000°21'1019.5
2017-Sep-15 07:00N 49°23' W 000°16'611.6
2017-Sep-15 06:30N 49°17' W 000°15'0 0.0
2017-Sep-15 06:00N 49°17' W 000°15'0 0.0
2017-Sep-15 05:30N 49°17' W 000°15'0 0.0
2017-Sep-15 05:00N 49°17' W 000°15'0 0.1
2017-Sep-15 04:31N 49°17' W 000°15'815.2
2017-Sep-15 04:00N 49°25' W 000°15'7014.9
2017-Sep-14 23:19N 50°30' W 000°54'515.8
2017-Sep-14 23:00N 50°35' W 000°56'815.6
2017-Sep-14 22:30N 50°42' W 000°59'713.6
2017-Sep-14 22:00N 50°47' W 001°06'2 3.2
2017-Sep-14 21:30N 50°49' W 001°06'0 0.0
2017-Sep-14 21:00N 50°49' W 001°06'0 0.0
2017-Sep-14 20:30N 50°49' W 001°06'1 2.1
2017-Sep-14 20:00N 50°48' W 001°07'510.6
2017-Sep-14 19:30N 50°43' W 001°02'917.7
2017-Sep-14 19:00N 50°36' W 000°56'1019.6
2017-Sep-14 18:30N 50°26' W 000°51'6019.1
2017-Sep-14 15:21N 49°30' W 000°19'618.7
2017-Sep-14 15:00N 49°24' W 000°16'612.6
2017-Sep-14 14:30N 49°17' W 000°15'0 0.0
2017-Sep-14 14:00N 49°17' W 000°15'0 0.0
2017-Sep-14 13:30N 49°17' W 000°15'0 0.0
2017-Sep-14 13:00N 49°17' W 000°15'0 0.9
2017-Sep-14 12:30N 49°18' W 000°15'816.2
2017-Sep-14 12:00N 49°26' W 000°15'1620.1
2017-Sep-14 11:12N 49°41' W 000°25'5819.8
2017-Sep-14 08:15N 50°35' W 000°57'519.6
2017-Sep-14 08:00N 50°40' W 000°60'816.4
2017-Sep-14 07:30N 50°47' W 001°06'2 3.6
2017-Sep-14 07:01N 50°49' W 001°06'0 0.0
2017-Sep-14 06:31N 50°49' W 001°06'0 0.0
2017-Sep-14 06:01N 50°49' W 001°06'0 0.2
2017-Sep-14 05:31N 50°49' W 001°06'5 9.9
2017-Sep-14 05:01N 50°44' W 001°04'917.1
2017-Sep-14 04:30N 50°36' W 000°58'1116.9
2017-Sep-14 03:50N 50°25' W 000°52'1417.1
2017-Sep-14 03:02N 50°12' W 000°51'116.7
2017-Sep-14 03:00N 50°11' W 000°51'1217.2
2017-Sep-14 02:17N 49°59' W 000°57'517.0
2017-Sep-14 02:01N 49°55' W 000°59'816.4
2017-Sep-14 01:30N 49°47' W 001°01'713.0
2017-Sep-14 01:00N 49°40' W 001°01'25 9.8
2017-Sep-13 22:31N 49°28' W 000°28'1 9.8
2017-Sep-13 22:22N 49°27' W 000°26'410.3
2017-Sep-13 22:00N 49°25' W 000°22'510.3
2017-Sep-13 21:30N 49°22' W 000°16'4 8.5
2017-Sep-13 21:00N 49°17' W 000°15'0 0.0
2017-Sep-13 20:30N 49°17' W 000°15'0 0.0
2017-Sep-13 20:00N 49°17' W 000°15'0 0.0
2017-Sep-13 19:30N 49°17' W 000°15'0 0.0
2017-Sep-13 19:00N 49°17' W 000°15'0 0.0
2017-Sep-13 18:30N 49°17' W 000°15'0 0.0
2017-Sep-13 18:00N 49°17' W 000°15'0 0.0
2017-Sep-13 17:30N 49°17' W 000°15'0 0.0
2017-Sep-13 17:00N 49°17' W 000°15'0 0.0
2017-Sep-13 16:30N 49°17' W 000°15'0 0.0
2017-Sep-13 16:00N 49°17' W 000°15'0 0.0
2017-Sep-13 15:30N 49°17' W 000°15'0 0.0
2017-Sep-13 15:00N 49°17' W 000°15'0 0.0
2017-Sep-13 14:30N 49°17' W 000°15'0 0.0
2017-Sep-13 14:00N 49°17' W 000°15'0 0.0
2017-Sep-13 13:30N 49°17' W 000°15'0 0.0
2017-Sep-13 13:00N 49°17' W 000°15'4 8.1
2017-Sep-13 12:30N 49°21' W 000°14'816.6
2017-Sep-13 12:00N 49°30' W 000°13'918.4
2017-Sep-13 11:30N 49°38' W 000°20'5719.6
2017-Sep-13 08:37N 50°28' W 001°01'219.4
2017-Sep-13 08:30N 50°30' W 001°02'918.8
2017-Sep-13 08:00N 50°39' W 001°04'714.2
2017-Sep-13 07:30N 50°46' W 001°06'2 4.6
2017-Sep-13 07:00N 50°49' W 001°06'0 0.0
2017-Sep-13 06:30N 50°49' W 001°06'0 0.0
2017-Sep-13 06:00N 50°49' W 001°06'0 0.2
2017-Sep-13 05:30N 50°49' W 001°06'4 8.9
2017-Sep-13 05:00N 50°44' W 001°04'917.0
2017-Sep-13 04:30N 50°37' W 000°57'816.4
2017-Sep-13 04:00N 50°30' W 000°51'1918.4
2017-Sep-13 02:59N 50°11' W 000°46'1018.8
2017-Sep-13 02:28N 50°01' W 000°45'818.6
2017-Sep-13 02:01N 49°53' W 000°45'2712.8
2017-Sep-12 23:56N 49°29' W 000°27'614.5
2017-Sep-12 23:30N 49°25' W 000°21'713.2
2017-Sep-12 23:01N 49°20' W 000°14'2 4.4
2017-Sep-12 22:30N 49°17' W 000°15'0 0.0
2017-Sep-12 22:00N 49°17' W 000°15'0 0.0
2017-Sep-12 21:30N 49°17' W 000°15'1 2.5
2017-Sep-12 21:00N 49°19' W 000°15'815.1
2017-Sep-12 20:30N 49°26' W 000°16'6618.6
2017-Sep-12 16:58N 50°27' W 000°53'1018.8
2017-Sep-12 16:26N 50°37' W 000°58'817.8
2017-Sep-12 16:00N 50°44' W 001°03'510.4
2017-Sep-12 15:31N 50°49' W 001°07'1 1.2
2017-Sep-12 15:01N 50°49' W 001°06'0 0.0
2017-Sep-12 14:31N 50°49' W 001°06'0 0.0
2017-Sep-12 14:01N 50°49' W 001°06'0 0.0
2017-Sep-12 13:30N 50°49' W 001°06'1 2.9
2017-Sep-12 13:01N 50°47' W 001°07'815.6
2017-Sep-12 12:31N 50°41' W 000°60'1019.3
2017-Sep-12 12:01N 50°32' W 000°55'6518.7
2017-Sep-12 08:32N 49°30' W 000°20'119.4
2017-Sep-12 08:29N 49°30' W 000°20'919.0
2017-Sep-12 08:01N 49°21' W 000°15'4 7.5
2017-Sep-12 07:30N 49°17' W 000°15'0 0.0
2017-Sep-12 07:00N 49°17' W 000°15'0 0.0
2017-Sep-12 06:30N 49°17' W 000°15'0 0.0
2017-Sep-12 06:00N 49°17' W 000°15'0 0.0
2017-Sep-12 05:30N 49°17' W 000°15'0 0.0
2017-Sep-12 05:00N 49°17' W 000°15'0 0.1
2017-Sep-12 04:30N 49°17' W 000°15'611.6
2017-Sep-12 04:01N 49°23' W 000°15'918.7
2017-Sep-12 03:31N 49°32' W 000°18'1017.3
2017-Sep-12 02:56N 49°42' W 000°22'5517.8
2017-Sep-11 23:50N 50°29' W 001°07'515.8
2017-Sep-11 23:31N 50°34' W 001°10'714.2
2017-Sep-11 23:00N 50°40' W 001°04'714.4
2017-Sep-11 22:30N 50°47' W 001°06'2 3.9
2017-Sep-11 22:01N 50°49' W 001°06'0 0.0
2017-Sep-11 21:30N 50°49' W 001°06'0 0.0
2017-Sep-11 21:00N 50°49' W 001°06'0 0.0
2017-Sep-11 20:30N 50°49' W 001°06'1 2.7
2017-Sep-11 20:00N 50°47' W 001°07'815.2
2017-Sep-11 19:30N 50°42' W 000°58'1118.5
2017-Sep-11 18:56N 50°32' W 000°57'3219.4
2017-Sep-11 17:18N 50°01' W 000°43'3319.8
2017-Sep-11 15:39N 49°31' W 000°24'319.8
2017-Sep-11 15:30N 49°28' W 000°22'919.3
2017-Sep-11 15:01N 49°20' W 000°14'3 5.4
2017-Sep-11 14:30N 49°17' W 000°15'0 0.0
2017-Sep-11 14:00N 49°17' W 000°15'0 0.0
2017-Sep-11 13:30N 49°17' W 000°15'0 0.0
2017-Sep-11 13:00N 49°17' W 000°15'510.5
2017-Sep-11 12:30N 49°23' W 000°14'918.9
2017-Sep-11 12:00N 49°32' W 000°16'1218.5
2017-Sep-11 11:23N 49°43' W 000°20'1820.4
2017-Sep-11 10:29N 49°58' W 000°36'3619.3
2017-Sep-11 08:36N 50°32' W 000°56'319.6
2017-Sep-11 08:28N 50°35' W 000°58'817.5
2017-Sep-11 08:00N 50°43' W 000°59'714.5
2017-Sep-11 07:30N 50°48' W 001°07'1 1.6
2017-Sep-11 07:01N 50°49' W 001°06'0 0.0
2017-Sep-11 06:30N 50°49' W 001°06'0 0.0
2017-Sep-11 06:00N 50°49' W 001°06'0 0.3
2017-Sep-11 05:30N 50°49' W 001°06'510.4
2017-Sep-11 05:00N 50°44' W 001°03'816.2
2017-Sep-11 04:30N 50°37' W 000°58'815.8
2017-Sep-11 04:00N 50°29' W 000°54'5615.9
2017-Sep-11 00:29N 49°37' W 000°21'714.6
2017-Sep-11 00:00N 49°31' W 000°16'4 8.3
2017-Sep-10 23:30N 49°27' W 000°14'2 3.2
2017-Sep-10 23:00N 49°27' W 000°16'2 3.4
2017-Sep-10 22:30N 49°27' W 000°19'1 2.5
2017-Sep-10 22:00N 49°27' W 000°20'713.2
2017-Sep-10 21:30N 49°21' W 000°15'4 7.7
2017-Sep-10 21:00N 49°17' W 000°15'0 0.0
2017-Sep-10 20:30N 49°17' W 000°15'0 0.0
2017-Sep-10 20:00N 49°17' W 000°15'0 0.3
2017-Sep-10 19:30N 49°17' W 000°15'611.2
2017-Sep-10 19:00N 49°23' W 000°15'3618.4
2017-Sep-10 17:03N 49°56' W 000°37'3518.0
2017-Sep-10 15:08N 50°29' W 000°54'418.2
2017-Sep-10 14:54N 50°33' W 000°55'1517.2
2017-Sep-10 14:00N 50°47' W 001°06'2 4.2
2017-Sep-10 13:30N 50°49' W 001°06'0 0.0
2017-Sep-10 13:00N 50°49' W 001°06'0 0.0
2017-Sep-10 12:30N 50°49' W 001°06'0 0.2
2017-Sep-10 12:00N 50°49' W 001°06'5 9.8
2017-Sep-10 11:31N 50°44' W 001°04'918.8
2017-Sep-10 11:01N 50°36' W 000°57'1019.1
2017-Sep-10 10:30N 50°27' W 000°51'6219.1
2017-Sep-10 07:13N 49°28' W 000°19'419.7
2017-Sep-10 07:01N 49°24' W 000°16'713.0
2017-Sep-10 06:31N 49°17' W 000°15'0 0.1
2017-Sep-10 06:00N 49°17' W 000°15'0 0.0
2017-Sep-10 05:31N 49°17' W 000°15'0 0.0
2017-Sep-10 05:01N 49°17' W 000°15'0 0.2
2017-Sep-10 04:30N 49°17' W 000°15'611.4
2017-Sep-10 04:01N 49°23' W 000°15'7514.8
2017-Sep-09 22:56N 50°34' W 000°54'715.8
2017-Sep-09 22:30N 50°40' W 000°59'714.7
2017-Sep-09 22:01N 50°46' W 001°05'3 5.7
2017-Sep-09 21:30N 50°49' W 001°06'0 0.0
2017-Sep-09 21:01N 50°49' W 001°06'0 0.0
2017-Sep-09 20:30N 50°49' W 001°06'0 0.1
2017-Sep-09 20:01N 50°49' W 001°06'4 8.4
2017-Sep-09 19:31N 50°45' W 001°05'815.5
2017-Sep-09 19:01N 50°38' W 000°58'918.2
2017-Sep-09 18:31N 50°29' W 000°53'5919.4
2017-Sep-09 15:30N 49°35' W 000°20'1020.3
2017-Sep-09 15:01N 49°25' W 000°17'815.5
2017-Sep-09 14:30N 49°18' W 000°15'0 0.5
2017-Sep-09 14:00N 49°17' W 000°15'0 0.0
2017-Sep-09 13:30N 49°17' W 000°15'0 0.0
2017-Sep-09 13:00N 49°17' W 000°15'1 1.9
2017-Sep-09 12:30N 49°18' W 000°15'917.4
2017-Sep-09 12:01N 49°27' W 000°15'  
Track history (hours):
 
Tides and Currents Weather Stations Pressure Air Temp Water Temp Dewpoint Dewpoint Depression Visibility Wind Speed Wind Dir Waves Ship Positions

Normandie

Operator: Brittany Ferries

Last reported at 2017-Sep-19 11:31 UTC. Time now 2017-Sep-19 11:43 UTC.
Position N 50°41' W 001°01'.

Length 161 m; beam 27 m.

Type: Passenger vessel. MMSI: 227273000.

Date/timePositionNaut miles runAvg speedWind from/ knotsBaromVisibWave heightAir tempDewpointWater temp
2017-Sep-19 11:31N 50°41' W 001°01'1019.3
2017-Sep-19 11:00N 50°32' W 000°55'6219.2
2017-Sep-19 07:48N 49°35' W 000°21'619.1
2017-Sep-19 07:30N 49°29' W 000°19'918.4
2017-Sep-19 07:00N 49°21' W 000°14'3 6.4
2017-Sep-19 06:31N 49°17' W 000°15'0 0.0
2017-Sep-19 06:00N 49°17' W 000°15'0 0.0
2017-Sep-19 05:30N 49°17' W 000°15'0 0.0
2017-Sep-19 05:01N 49°17' W 000°15'0 0.3
2017-Sep-19 04:31N 49°17' W 000°15'815.6
2017-Sep-19 04:00N 49°25' W 000°14'916.0
2017-Sep-19 03:28N 49°33' W 000°20'6415.3
2017-Sep-18 23:16N 50°33' W 000°56'415.5
2017-Sep-18 23:01N 50°37' W 000°58'815.1
2017-Sep-18 22:30N 50°44' W 001°03'510.8
2017-Sep-18 22:01N 50°49' W 001°06'0 0.6
2017-Sep-18 21:30N 50°49' W 001°06'0 0.0
2017-Sep-18 21:01N 50°49' W 001°06'0 0.0
2017-Sep-18 20:30N 50°49' W 001°06'2 3.4
2017-Sep-18 20:00N 50°47' W 001°06'816.5
2017-Sep-18 19:31N 50°40' W 000°59'918.8
2017-Sep-18 19:00N 50°32' W 000°53'6718.8
2017-Sep-18 15:25N 49°28' W 000°19'818.4
2017-Sep-18 15:00N 49°21' W 000°15'3 6.9
2017-Sep-18 14:30N 49°17' W 000°15'0 0.0
2017-Sep-18 14:00N 49°17' W 000°15'0 0.0
2017-Sep-18 13:31N 49°17' W 000°15'0 0.0
2017-Sep-18 13:00N 49°17' W 000°15'4 7.3
2017-Sep-18 12:30N 49°21' W 000°14'1018.9
2017-Sep-18 11:58N 49°31' W 000°19'6618.5
2017-Sep-18 08:25N 50°32' W 000°54'819.0
2017-Sep-18 08:00N 50°39' W 000°59'816.9
2017-Sep-18 07:31N 50°47' W 001°06'2 3.9
2017-Sep-18 07:00N 50°49' W 001°06'0 0.0
2017-Sep-18 06:31N 50°49' W 001°06'0 0.0
2017-Sep-18 06:00N 50°49' W 001°06'0 1.0
2017-Sep-18 05:31N 50°49' W 001°07'611.8
2017-Sep-18 05:01N 50°44' W 001°02'816.9
2017-Sep-18 04:30N 50°36' W 000°56'3411.6
2017-Sep-18 01:34N 50°03' W 000°43'211.3
2017-Sep-18 01:23N 50°01' W 000°43'411.7
2017-Sep-18 01:00N 49°56' W 000°41'2410.8
2017-Sep-17 22:44N 49°36' W 000°19'311.8
2017-Sep-17 22:29N 49°33' W 000°18'611.6
2017-Sep-17 22:00N 49°28' W 000°17'611.3
2017-Sep-17 21:30N 49°22' W 000°15'510.2
2017-Sep-17 21:00N 49°17' W 000°15'0 0.1
2017-Sep-17 20:30N 49°17' W 000°15'0 0.0
2017-Sep-17 20:00N 49°17' W 000°15'0 0.0
2017-Sep-17 19:30N 49°17' W 000°15'3 6.1
2017-Sep-17 19:00N 49°20' W 000°14'918.7
2017-Sep-17 18:30N 49°30' W 000°17'7218.7
2017-Sep-17 14:39N 50°37' W 000°57'319.1
2017-Sep-17 14:30N 50°39' W 000°58'816.8
2017-Sep-17 14:00N 50°46' W 001°05'3 5.1
2017-Sep-17 13:31N 50°49' W 001°06'0 0.0
2017-Sep-17 13:01N 50°49' W 001°06'0 0.0
2017-Sep-17 12:31N 50°49' W 001°06'0 0.6
2017-Sep-17 12:00N 50°49' W 001°06'611.2
2017-Sep-17 11:30N 50°44' W 001°02'817.0
2017-Sep-17 11:01N 50°36' W 000°58'2518.8
2017-Sep-17 09:40N 50°12' W 000°45'618.9
2017-Sep-17 09:22N 50°07' W 000°41'4218.9
2017-Sep-17 07:09N 49°28' W 000°18'318.7
2017-Sep-17 07:00N 49°25' W 000°17'815.9
2017-Sep-17 06:30N 49°17' W 000°15'0 0.1
2017-Sep-17 06:00N 49°17' W 000°15'0 0.0
2017-Sep-17 05:30N 49°17' W 000°15'0 0.0
2017-Sep-17 05:00N 49°17' W 000°15'0 0.0
2017-Sep-17 04:30N 49°17' W 000°15'612.5
2017-Sep-17 04:00N 49°24' W 000°14'915.6
2017-Sep-17 03:26N 49°32' W 000°19'6615.3
2017-Sep-16 23:08N 50°33' W 000°56'416.1
2017-Sep-16 22:52N 50°38' W 000°58'615.7
2017-Sep-16 22:30N 50°42' W 001°02'612.9
2017-Sep-16 22:00N 50°48' W 001°07'1 1.9
2017-Sep-16 21:30N 50°49' W 001°06'0 0.0
2017-Sep-16 21:00N 50°49' W 001°06'0 0.0
2017-Sep-16 20:31N 50°49' W 001°06'1 1.6
2017-Sep-16 20:00N 50°48' W 001°07'714.6
2017-Sep-16 19:31N 50°42' W 001°01'1019.3
2017-Sep-16 19:00N 50°34' W 000°53'6419.0
2017-Sep-16 15:39N 49°33' W 000°22'318.7
2017-Sep-16 15:29N 49°30' W 000°20'918.2
2017-Sep-16 15:01N 49°22' W 000°15'5 9.9
2017-Sep-16 14:31N 49°17' W 000°15'0 0.0
2017-Sep-16 14:00N 49°17' W 000°15'0 0.0
2017-Sep-16 13:31N 49°17' W 000°15'0 0.2
2017-Sep-16 13:01N 49°17' W 000°15'713.5
2017-Sep-16 12:30N 49°24' W 000°14'1019.1
2017-Sep-16 12:00N 49°34' W 000°16'7019.2
2017-Sep-16 08:22N 50°38' W 000°59'617.6
2017-Sep-16 08:00N 50°44' W 001°03'510.7
2017-Sep-16 07:30N 50°49' W 001°06'0 0.1
2017-Sep-16 07:00N 50°49' W 001°06'0 0.0
2017-Sep-16 06:30N 50°49' W 001°06'0 0.0
2017-Sep-16 06:00N 50°49' W 001°06'0 0.2
2017-Sep-16 05:31N 50°49' W 001°06'5 9.8
2017-Sep-16 05:00N 50°44' W 001°04'918.5
2017-Sep-16 04:31N 50°36' W 000°58'6911.3
2017-Sep-15 22:25N 49°31' W 000°21'511.0
2017-Sep-15 22:00N 49°27' W 000°18'611.3
2017-Sep-15 21:30N 49°22' W 000°15'4 8.4
2017-Sep-15 21:00N 49°17' W 000°15'0 0.0
2017-Sep-15 20:30N 49°17' W 000°15'0 0.0
2017-Sep-15 20:00N 49°17' W 000°15'0 0.0
2017-Sep-15 19:30N 49°17' W 000°15'3 6.1
2017-Sep-15 19:01N 49°20' W 000°14'918.5
2017-Sep-15 18:30N 49°29' W 000°17'7219.2
2017-Sep-15 14:46N 50°37' W 000°57'518.7
2017-Sep-15 14:30N 50°42' W 000°58'816.4
2017-Sep-15 14:00N 50°48' W 001°07'1 2.5
2017-Sep-15 13:30N 50°49' W 001°06'0 0.0
2017-Sep-15 13:01N 50°49' W 001°06'0 0.0
2017-Sep-15 12:31N 50°49' W 001°06'0 0.7
2017-Sep-15 12:00N 50°49' W 001°06'611.6
2017-Sep-15 11:30N 50°44' W 001°02'917.0
2017-Sep-15 11:00N 50°36' W 000°56'6419.4
2017-Sep-15 07:41N 49°35' W 000°25'419.4
2017-Sep-15 07:30N 49°32' W 000°21'1019.5
2017-Sep-15 07:00N 49°23' W 000°16'611.6
2017-Sep-15 06:30N 49°17' W 000°15'0 0.0
2017-Sep-15 06:00N 49°17' W 000°15'0 0.0
2017-Sep-15 05:30N 49°17' W 000°15'0 0.0
2017-Sep-15 05:00N 49°17' W 000°15'0 0.1
2017-Sep-15 04:31N 49°17' W 000°15'815.2
2017-Sep-15 04:00N 49°25' W 000°15'7014.9
2017-Sep-14 23:19N 50°30' W 000°54'515.8
2017-Sep-14 23:00N 50°35' W 000°56'815.6
2017-Sep-14 22:30N 50°42' W 000°59'713.6
2017-Sep-14 22:00N 50°47' W 001°06'2 3.2
2017-Sep-14 21:30N 50°49' W 001°06'0 0.0
2017-Sep-14 21:00N 50°49' W 001°06'0 0.0
2017-Sep-14 20:30N 50°49' W 001°06'1 2.1
2017-Sep-14 20:00N 50°48' W 001°07'510.6
2017-Sep-14 19:30N 50°43' W 001°02'917.7
2017-Sep-14 19:00N 50°36' W 000°56'1019.6
2017-Sep-14 18:30N 50°26' W 000°51'6019.1
2017-Sep-14 15:21N 49°30' W 000°19'618.7
2017-Sep-14 15:00N 49°24' W 000°16'612.6
2017-Sep-14 14:30N 49°17' W 000°15'0 0.0
2017-Sep-14 14:00N 49°17' W 000°15'0 0.0
2017-Sep-14 13:30N 49°17' W 000°15'0 0.0
2017-Sep-14 13:00N 49°17' W 000°15'0 0.9
2017-Sep-14 12:30N 49°18' W 000°15'816.2
2017-Sep-14 12:00N 49°26' W 000°15'1620.1
2017-Sep-14 11:12N 49°41' W 000°25'5819.8
2017-Sep-14 08:15N 50°35' W 000°57'519.6
2017-Sep-14 08:00N 50°40' W 000°60'816.4
2017-Sep-14 07:30N 50°47' W 001°06'2 3.6
2017-Sep-14 07:01N 50°49' W 001°06'0 0.0
2017-Sep-14 06:31N 50°49' W 001°06'0 0.0
2017-Sep-14 06:01N 50°49' W 001°06'0 0.2
2017-Sep-14 05:31N 50°49' W 001°06'5 9.9
2017-Sep-14 05:01N 50°44' W 001°04'917.1
2017-Sep-14 04:30N 50°36' W 000°58'1116.9
2017-Sep-14 03:50N 50°25' W 000°52'1417.1
2017-Sep-14 03:02N 50°12' W 000°51'116.7
2017-Sep-14 03:00N 50°11' W 000°51'1217.2
2017-Sep-14 02:17N 49°59' W 000°57'517.0
2017-Sep-14 02:01N 49°55' W 000°59'816.4
2017-Sep-14 01:30N 49°47' W 001°01'713.0
2017-Sep-14 01:00N 49°40' W 001°01'25 9.8
2017-Sep-13 22:31N 49°28' W 000°28'1 9.8
2017-Sep-13 22:22N 49°27' W 000°26'410.3
2017-Sep-13 22:00N 49°25' W 000°22'510.3
2017-Sep-13 21:30N 49°22' W 000°16'4 8.5
2017-Sep-13 21:00N 49°17' W 000°15'0 0.0
2017-Sep-13 20:30N 49°17' W 000°15'0 0.0
2017-Sep-13 20:00N 49°17' W 000°15'0 0.0
2017-Sep-13 19:30N 49°17' W 000°15'0 0.0
2017-Sep-13 19:00N 49°17' W 000°15'0 0.0
2017-Sep-13 18:30N 49°17' W 000°15'0 0.0
2017-Sep-13 18:00N 49°17' W 000°15'0 0.0
2017-Sep-13 17:30N 49°17' W 000°15'0 0.0
2017-Sep-13 17:00N 49°17' W 000°15'0 0.0
2017-Sep-13 16:30N 49°17' W 000°15'0 0.0
2017-Sep-13 16:00N 49°17' W 000°15'0 0.0
2017-Sep-13 15:30N 49°17' W 000°15'0 0.0
2017-Sep-13 15:00N 49°17' W 000°15'0 0.0
2017-Sep-13 14:30N 49°17' W 000°15'0 0.0
2017-Sep-13 14:00N 49°17' W 000°15'0 0.0
2017-Sep-13 13:30N 49°17' W 000°15'0 0.0
2017-Sep-13 13:00N 49°17' W 000°15'4 8.1
2017-Sep-13 12:30N 49°21' W 000°14'816.6
2017-Sep-13 12:00N 49°30' W 000°13'918.4
2017-Sep-13 11:30N 49°38' W 000°20'5719.6
2017-Sep-13 08:37N 50°28' W 001°01'219.4
2017-Sep-13 08:30N 50°30' W 001°02'918.8
2017-Sep-13 08:00N 50°39' W 001°04'714.2
2017-Sep-13 07:30N 50°46' W 001°06'2 4.6
2017-Sep-13 07:00N 50°49' W 001°06'0 0.0
2017-Sep-13 06:30N 50°49' W 001°06'0 0.0
2017-Sep-13 06:00N 50°49' W 001°06'0 0.2
2017-Sep-13 05:30N 50°49' W 001°06'4 8.9
2017-Sep-13 05:00N 50°44' W 001°04'917.0
2017-Sep-13 04:30N 50°37' W 000°57'816.4
2017-Sep-13 04:00N 50°30' W 000°51'1918.4
2017-Sep-13 02:59N 50°11' W 000°46'1018.8
2017-Sep-13 02:28N 50°01' W 000°45'818.6
2017-Sep-13 02:01N 49°53' W 000°45'2712.8
2017-Sep-12 23:56N 49°29' W 000°27'614.5
2017-Sep-12 23:30N 49°25' W 000°21'713.2
2017-Sep-12 23:01N 49°20' W 000°14'2 4.4
2017-Sep-12 22:30N 49°17' W 000°15'0 0.0
2017-Sep-12 22:00N 49°17' W 000°15'0 0.0
2017-Sep-12 21:30N 49°17' W 000°15'1 2.5
2017-Sep-12 21:00N 49°19' W 000°15'815.1
2017-Sep-12 20:30N 49°26' W 000°16'6618.6
2017-Sep-12 16:58N 50°27' W 000°53'1018.8
2017-Sep-12 16:26N 50°37' W 000°58'817.8
2017-Sep-12 16:00N 50°44' W 001°03'510.4
2017-Sep-12 15:31N 50°49' W 001°07'1 1.2
2017-Sep-12 15:01N 50°49' W 001°06'0 0.0
2017-Sep-12 14:31N 50°49' W 001°06'0 0.0
2017-Sep-12 14:01N 50°49' W 001°06'0 0.0
2017-Sep-12 13:30N 50°49' W 001°06'1 2.9
2017-Sep-12 13:01N 50°47' W 001°07'815.6
2017-Sep-12 12:31N 50°41' W 000°60'1019.3
2017-Sep-12 12:01N 50°32' W 000°55'6518.7
2017-Sep-12 08:32N 49°30' W 000°20'119.4
2017-Sep-12 08:29N 49°30' W 000°20'919.0
2017-Sep-12 08:01N 49°21' W 000°15'4 7.5
2017-Sep-12 07:30N 49°17' W 000°15'0 0.0
2017-Sep-12 07:00N 49°17' W 000°15'0 0.0
2017-Sep-12 06:30N 49°17' W 000°15'0 0.0
2017-Sep-12 06:00N 49°17' W 000°15'0 0.0
2017-Sep-12 05:30N 49°17' W 000°15'0 0.0
2017-Sep-12 05:00N 49°17' W 000°15'0 0.1
2017-Sep-12 04:30N 49°17' W 000°15'611.6
2017-Sep-12 04:01N 49°23' W 000°15'918.7
2017-Sep-12 03:31N 49°32' W 000°18'1017.3
2017-Sep-12 02:56N 49°42' W 000°22'5517.8
2017-Sep-11 23:50N 50°29' W 001°07'515.8
2017-Sep-11 23:31N 50°34' W 001°10'714.2
2017-Sep-11 23:00N 50°40' W 001°04'714.4
2017-Sep-11 22:30N 50°47' W 001°06'2 3.9
2017-Sep-11 22:01N 50°49' W 001°06'0 0.0
2017-Sep-11 21:30N 50°49' W 001°06'0 0.0
2017-Sep-11 21:00N 50°49' W 001°06'0 0.0
2017-Sep-11 20:30N 50°49' W 001°06'1 2.7
2017-Sep-11 20:00N 50°47' W 001°07'815.2
2017-Sep-11 19:30N 50°42' W 000°58'1118.5
2017-Sep-11 18:56N 50°32' W 000°57'3219.4
2017-Sep-11 17:18N 50°01' W 000°43'3319.8
2017-Sep-11 15:39N 49°31' W 000°24'319.8
2017-Sep-11 15:30N 49°28' W 000°22'919.3
2017-Sep-11 15:01N 49°20' W 000°14'3 5.4
2017-Sep-11 14:30N 49°17' W 000°15'0 0.0
2017-Sep-11 14:00N 49°17' W 000°15'0 0.0
2017-Sep-11 13:30N 49°17' W 000°15'0 0.0
2017-Sep-11 13:00N 49°17' W 000°15'510.5
2017-Sep-11 12:30N 49°23' W 000°14'918.9
2017-Sep-11 12:00N 49°32' W 000°16'1218.5
2017-Sep-11 11:23N 49°43' W 000°20'1820.4
2017-Sep-11 10:29N 49°58' W 000°36'3619.3
2017-Sep-11 08:36N 50°32' W 000°56'319.6
2017-Sep-11 08:28N 50°35' W 000°58'817.5
2017-Sep-11 08:00N 50°43' W 000°59'714.5
2017-Sep-11 07:30N 50°48' W 001°07'1 1.6
2017-Sep-11 07:01N 50°49' W 001°06'0 0.0
2017-Sep-11 06:30N 50°49' W 001°06'0 0.0
2017-Sep-11 06:00N 50°49' W 001°06'0 0.3
2017-Sep-11 05:30N 50°49' W 001°06'510.4
2017-Sep-11 05:00N 50°44' W 001°03'816.2
2017-Sep-11 04:30N 50°37' W 000°58'815.8
2017-Sep-11 04:00N 50°29' W 000°54'5615.9
2017-Sep-11 00:29N 49°37' W 000°21'714.6
2017-Sep-11 00:00N 49°31' W 000°16'4 8.3
2017-Sep-10 23:30N 49°27' W 000°14'2 3.2
2017-Sep-10 23:00N 49°27' W 000°16'2 3.4
2017-Sep-10 22:30N 49°27' W 000°19'1 2.5
2017-Sep-10 22:00N 49°27' W 000°20'713.2
2017-Sep-10 21:30N 49°21' W 000°15'4 7.7
2017-Sep-10 21:00N 49°17' W 000°15'0 0.0
2017-Sep-10 20:30N 49°17' W 000°15'0 0.0
2017-Sep-10 20:00N 49°17' W 000°15'0 0.3
2017-Sep-10 19:30N 49°17' W 000°15'611.2
2017-Sep-10 19:00N 49°23' W 000°15'3618.4
2017-Sep-10 17:03N 49°56' W 000°37'3518.0
2017-Sep-10 15:08N 50°29' W 000°54'418.2
2017-Sep-10 14:54N 50°33' W 000°55'1517.2
2017-Sep-10 14:00N 50°47' W 001°06'2 4.2
2017-Sep-10 13:30N 50°49' W 001°06'0 0.0
2017-Sep-10 13:00N 50°49' W 001°06'0 0.0
2017-Sep-10 12:30N 50°49' W 001°06'0 0.2
2017-Sep-10 12:00N 50°49' W 001°06'5 9.8
2017-Sep-10 11:31N 50°44' W 001°04'918.8
2017-Sep-10 11:01N 50°36' W 000°57'1019.1
2017-Sep-10 10:30N 50°27' W 000°51'6219.1
2017-Sep-10 07:13N 49°28' W 000°19'419.7
2017-Sep-10 07:01N 49°24' W 000°16'713.0
2017-Sep-10 06:31N 49°17' W 000°15'0 0.1
2017-Sep-10 06:00N 49°17' W 000°15'0 0.0
2017-Sep-10 05:31N 49°17' W 000°15'0 0.0
2017-Sep-10 05:01N 49°17' W 000°15'0 0.2
2017-Sep-10 04:30N 49°17' W 000°15'611.4
2017-Sep-10 04:01N 49°23' W 000°15'7514.8
2017-Sep-09 22:56N 50°34' W 000°54'715.8
2017-Sep-09 22:30N 50°40' W 000°59'714.7
2017-Sep-09 22:01N 50°46' W 001°05'3 5.7
2017-Sep-09 21:30N 50°49' W 001°06'0 0.0
2017-Sep-09 21:01N 50°49' W 001°06'0 0.0
2017-Sep-09 20:30N 50°49' W 001°06'0 0.1
2017-Sep-09 20:01N 50°49' W 001°06'4 8.4
2017-Sep-09 19:31N 50°45' W 001°05'815.5
2017-Sep-09 19:01N 50°38' W 000°58'918.2
2017-Sep-09 18:31N 50°29' W 000°53'5919.4
2017-Sep-09 15:30N 49°35' W 000°20'1020.3
2017-Sep-09 15:01N 49°25' W 000°17'815.5
2017-Sep-09 14:30N 49°18' W 000°15'0 0.5
2017-Sep-09 14:00N 49°17' W 000°15'0 0.0
2017-Sep-09 13:30N 49°17' W 000°15'0 0.0
2017-Sep-09 13:00N 49°17' W 000°15'1 1.9
2017-Sep-09 12:30N 49°18' W 000°15'917.4
2017-Sep-09 12:01N 49°27' W 000°15'  

Dump ship's entire track history